This is the latest recevied weather packets stored in our database for station/object OK0EK-11. If no packets are shown the sender has not sent any weather packets the latest 10 day(s).
| Time | Temp. | Humidity | Pressure | Rain* | Wind** | Luminosity | Snow |
|---|---|---|---|---|---|---|---|
| 1777735171 | 16.11° C | 41% | 1023.4 hPa | - | - | - | - |
| 1777734571 | 16.67° C | 40% | 1023.4 hPa | - | - | - | - |
| 1777733971 | 16.67° C | 40% | 1023.5 hPa | - | - | - | - |
| 1777733373 | 16.67° C | 40% | 1023.5 hPa | - | - | - | - |
| 1777732773 | 16.67° C | 40% | 1023.6 hPa | - | - | - | - |
| 1777732174 | 17.22° C | 39% | 1023.7 hPa | - | - | - | - |
| 1777731575 | 17.22° C | 40% | 1023.8 hPa | - | - | - | - |
| 1777730976 | 16.67° C | 41% | 1023.7 hPa | - | - | - | - |
| 1777730376 | 16.67° C | 39% | 1023.9 hPa | - | - | - | - |
| 1777729776 | 17.22° C | 38% | 1023.8 hPa | - | - | - | - |
| 1777729176 | 16.67° C | 41% | 1023.9 hPa | - | - | - | - |
| 1777728578 | 16.67° C | 41% | 1024 hPa | - | - | - | - |
| 1777727978 | 16.67° C | 43% | 1024.3 hPa | - | - | - | - |
| 1777727378 | 16.67° C | 43% | 1024.4 hPa | - | - | - | - |
| 1777726778 | 16.11° C | 44% | 1024.5 hPa | - | - | - | - |
| 1777726180 | 16.67° C | 43% | 1024.3 hPa | - | - | - | - |
| 1777725580 | 16.11° C | 45% | 1024.4 hPa | - | - | - | - |
| 1777724980 | 15.56° C | 45% | 1024.6 hPa | - | - | - | - |
| 1777724381 | 16.11° C | 46% | 1024.8 hPa | - | - | - | - |
| 1777723782 | 16.11° C | 46% | 1024.9 hPa | - | - | - | - |
| 1777723182 | 16.11° C | 46% | 1025 hPa | - | - | - | - |
| 1777722582 | 15.56° C | 47% | 1025.2 hPa | - | - | - | - |
| 1777721983 | 16.11° C | 46% | 1025.4 hPa | - | - | - | - |
| 1777721384 | 15.56° C | 46% | 1025.2 hPa | - | - | - | - |
| 1777720785 | 15.56° C | 46% | 1025.3 hPa | - | - | - | - |
* Rain since midnight (hover to see other rain measurements)
** Current wind speed in m/s (hover to see current wind gust speed)